Time;durP1;ratioP1;P1;durP2;ratioP2;P2;SDS_P1;SDS_P2;PMS_P1;PMS_P2;Temp;Humidity;BMP_temperature;BMP_pressure;BME280_temperature;BME280_humidity;BME280_pressure;Samples;Min_cycle;Max_cycle;Signal;HPM_P1;HPM_P2
2022/06/16 00:02:17;;;;;;;4.35;2.45;;;;;;;18.08;53.77;100443.45;2097904;92;25873;-79
2022/06/16 00:05:48;;;;;;;3.40;2.37;;;;;;;17.96;53.83;100453.65;2112369;91;25902;-80
2022/06/16 00:09:16;;;;;;;3.60;2.70;;;;;;;17.92;53.94;100447.52;2100200;92;25932;-79
2022/06/16 00:12:44;;;;;;;3.87;2.58;;;;;;;17.96;54.29;100447.50;2023927;96;26064;-79
2022/06/16 00:16:11;;;;;;;5.65;3.17;;;;;;;17.94;54.15;100442.22;2018461;96;25849;-79
2022/06/16 00:19:45;;;;;;;4.72;2.65;;;;;;;17.95;54.37;100446.59;2016393;97;25555;-79
2022/06/16 00:23:09;;;;;;;3.60;2.85;;;;;;;17.97;54.34;100445.28;1984301;97;26354;-79
2022/06/16 00:26:34;;;;;;;9.20;2.33;;;;;;;18.02;54.48;100444.80;2020129;96;25921;-80
2022/06/16 00:30:24;;;;;;;7.15;2.45;;;;;;;18.06;54.38;100441.28;2017722;96;25838;-79
2022/06/16 00:33:50;;;;;;;7.00;2.83;;;;;;;18.07;54.38;100437.75;1981531;99;25951;-79
2022/06/16 00:37:16;;;;;;;3.40;2.30;;;;;;;18.12;54.36;100438.17;2018182;96;25927;-79
2022/06/16 00:40:50;;;;;;;5.78;2.95;;;;;;;18.16;54.42;100443.85;2038692;94;25791;-78
2022/06/16 00:44:38;;;;;;;5.62;2.45;;;;;;;18.18;54.45;100446.02;2044543;94;25883;-79
2022/06/16 00:48:15;;;;;;;7.60;2.83;;;;;;;18.15;54.38;100441.20;2044042;95;26355;-79
2022/06/16 00:52:33;;;;;;;4.70;3.02;;;;;;;18.11;54.54;100442.11;2037250;96;25821;-78
2022/06/16 00:56:09;;;;;;;6.33;2.52;;;;;;;18.04;54.62;100431.17;2040980;95;25765;-79
2022/06/16 01:00:07;;;;;;;4.17;2.98;;;;;;;17.94;54.48;100429.90;2044897;94;25365;-78
2022/06/16 01:07:41;;;;;;;3.27;2.35;;;;;;;17.82;54.43;100434.36;1990507;97;25800;-78
2022/06/16 01:11:15;;;;;;;6.87;2.60;;;;;;;17.72;54.59;100425.61;1987262;97;25939;-78
2022/06/16 01:15:19;;;;;;;3.60;2.85;;;;;;;17.70;54.64;100421.64;1980059;95;25766;-77
2022/06/16 01:19:20;;;;;;;7.50;2.90;;;;;;;17.56;54.85;100421.29;2042287;95;25911;-77
2022/06/16 01:23:32;;;;;;;3.30;2.33;;;;;;;17.41;55.12;100413.89;2132250;91;26084;-78
2022/06/16 01:27:04;;;;;;;9.08;3.12;;;;;;;17.40;55.33;100403.33;2128574;91;25852;-78
2022/06/16 01:30:54;;;;;;;6.25;3.05;;;;;;;17.32;55.42;100409.09;2101183;91;25933;-78
2022/06/16 01:34:36;;;;;;;4.05;2.70;;;;;;;17.13;55.59;100404.30;2033882;96;25767;-77
2022/06/16 01:38:14;;;;;;;5.83;4.40;;;;;;;17.05;55.89;100400.83;2037198;96;26240;-78
2022/06/16 01:42:27;;;;;;;3.10;2.80;;;;;;;16.93;56.04;100399.95;2040748;95;25773;-79
2022/06/16 01:46:26;;;;;;;6.75;2.65;;;;;;;16.89;56.21;100403.92;2030275;96;25724;-78
2022/06/16 01:50:00;;;;;;;4.87;2.40;;;;;;;16.82;56.38;100401.73;2033695;96;25932;-78
2022/06/16 01:54:11;;;;;;;5.78;2.85;;;;;;;16.84;56.45;100396.05;2035303;96;25745;-79
2022/06/16 01:57:51;;;;;;;4.60;2.60;;;;;;;16.82;56.53;100399.11;2011288;95;26070;-79
2022/06/16 02:01:16;;;;;;;;;;;;;;;16.84;56.47;100401.72;1910833;102;25994;-79
2022/06/16 02:04:55;;;;;;;3.15;2.33;;;;;;;16.84;56.54;100400.41;1920018;99;25917;-79
2022/06/16 02:08:24;;;;;;;3.12;2.35;;;;;;;16.87;56.53;100402.59;1929420;101;25803;-79
2022/06/16 02:11:57;;;;;;;6.22;3.52;;;;;;;16.89;56.46;100406.55;2009529;97;25347;-79
2022/06/16 02:16:11;;;;;;;4.00;2.58;;;;;;;16.85;56.44;100399.55;2016871;96;25855;-78
2022/06/16 02:19:39;;;;;;;3.17;2.33;;;;;;;16.86;56.54;100405.24;2012381;96;25952;-79
2022/06/16 02:23:12;;;;;;;9.25;4.47;;;;;;;16.86;56.48;100402.17;2015033;97;25902;-79
2022/06/16 02:26:36;;;;;;;4.37;2.45;;;;;;;16.87;56.44;100405.23;2011284;97;25782;-78
2022/06/16 02:30:04;;;;;;;4.97;2.42;;;;;;;16.85;56.39;100407.45;2015595;96;25841;-78
2022/06/16 02:33:42;;;;;;;6.42;2.20;;;;;;;16.73;56.48;100408.29;2014590;96;25835;-77
2022/06/16 02:37:40;;;;;;;2.72;1.87;;;;;;;16.68;56.65;100400.86;2021894;96;25923;-77
2022/06/16 02:41:23;;;;;;;6.00;2.75;;;;;;;16.55;56.80;100408.32;2046393;94;25955;-77
2022/06/16 02:45:19;;;;;;;5.67;2.00;;;;;;;16.46;57.03;100414.45;2120030;92;25803;-77
2022/06/16 02:49:00;;;;;;;5.08;1.98;;;;;;;16.41;57.16;100414.45;2116545;92;26092;-77
2022/06/16 02:52:38;;;;;;;3.95;2.75;;;;;;;16.32;57.38;100415.77;2135862;90;25844;-79
2022/06/16 02:56:10;;;;;;;3.42;2.30;;;;;;;16.28;57.57;100419.27;2153040;90;25920;-77
2022/06/16 02:59:49;;;;;;;7.55;2.62;;;;;;;16.23;57.74;100412.70;2152077;90;25883;-77
2022/06/16 03:03:34;;;;;;;6.75;2.45;;;;;;;16.21;57.91;100415.76;2153522;90;25730;-77
2022/06/16 03:07:05;;;;;;;7.58;2.20;;;;;;;16.18;58.03;100417.06;2146880;90;25758;-78
2022/06/16 03:10:51;;;;;;;5.92;2.95;;;;;;;16.13;58.11;100422.77;2155956;90;25756;-79
2022/06/16 03:14:19;;;;;;;2.17;1.75;;;;;;;16.10;58.18;100419.23;2093204;92;25825;-78
2022/06/16 03:17:42;;;;;;;3.10;1.98;;;;;;;16.09;58.33;100422.75;2092142;92;25854;-78
2022/06/16 03:21:09;;;;;;;3.85;2.27;;;;;;;16.05;58.46;100422.73;2077673;93;25731;-79
2022/06/16 03:24:37;;;;;;;5.05;2.40;;;;;;;16.01;58.49;100431.50;2058991;94;26133;-78
2022/06/16 03:28:03;;;;;;;4.67;1.95;;;;;;;15.95;58.67;100420.09;2061725;94;25882;-78
2022/06/16 03:31:56;;;;;;;7.00;2.12;;;;;;;15.91;58.72;100425.78;2056253;94;25783;-78
2022/06/16 03:35:10;;;;;;;4.12;2.25;;;;;;;15.90;58.83;100418.78;2067733;93;25822;-78
2022/06/16 03:38:45;;;;;;;3.90;2.00;;;;;;;15.91;58.65;100419.20;2047975;94;25364;-79
2022/06/16 03:42:15;;;;;;;5.20;1.95;;;;;;;15.94;58.63;100410.45;2064858;93;26025;-79
2022/06/16 03:45:50;;;;;;;4.40;2.10;;;;;;;15.98;58.54;100408.27;2066042;93;26159;-79
2022/06/16 03:49:17;;;;;;;5.03;1.85;;;;;;;16.02;58.47;100406.95;2058653;93;25810;-78
2022/06/16 03:52:49;;;;;;;3.98;1.92;;;;;;;16.12;58.42;100410.48;2062695;93;25925;-79
2022/06/16 03:56:15;;;;;;;3.85;2.25;;;;;;;16.19;58.23;100400.84;2058433;93;26420;-79
2022/06/16 03:59:49;;;;;;;3.20;2.00;;;;;;;16.19;58.07;100395.58;2057225;93;25835;-78
2022/06/16 04:07:16;;;;;;;3.27;1.67;;;;;;;16.31;57.83;100394.28;2065117;89;25791;-79
2022/06/16 04:10:50;;;;;;;4.28;1.85;;;;;;;16.34;57.63;100397.36;2024401;95;26495;-78
2022/06/16 04:14:24;;;;;;;3.17;2.10;;;;;;;16.34;57.60;100406.13;2075064;95;25238;-78
2022/06/16 04:18:11;;;;;;;4.42;1.70;;;;;;;16.33;57.54;100396.45;2067295;92;25733;-79
2022/06/16 04:21:47;;;;;;;3.02;2.20;;;;;;;16.35;57.53;100397.34;2045911;95;25688;-79
2022/06/16 04:25:23;;;;;;;2.60;1.87;;;;;;;16.40;57.42;100391.66;2067027;93;25815;-79
2022/06/16 04:28:56;;;;;;;4.87;2.10;;;;;;;16.49;57.42;100391.64;2070419;95;25819;-79
2022/06/16 04:32:29;;;;;;;3.92;2.02;;;;;;;16.60;57.31;100383.73;2045633;95;25669;-80
2022/06/16 04:36:03;;;;;;;5.53;1.90;;;;;;;16.72;57.21;100390.31;2108238;93;25777;-78
2022/06/16 04:39:39;;;;;;;2.00;1.80;;;;;;;16.83;56.95;100386.81;2110894;92;25655;-79
2022/06/16 04:43:29;;;;;;;2.52;1.80;;;;;;;16.87;56.78;100384.16;2110727;92;25702;-79
2022/06/16 04:46:56;;;;;;;3.25;1.87;;;;;;;16.94;56.60;100383.70;2109778;91;25790;-80
2022/06/16 04:50:42;;;;;;;6.67;1.90;;;;;;;16.98;56.61;100381.08;2111066;92;25733;-80
2022/06/16 04:54:11;;;;;;;5.20;1.65;;;;;;;17.14;56.44;100387.61;2109686;92;25742;-79
2022/06/16 04:58:01;;;;;;;4.65;1.60;;;;;;;17.24;56.02;100385.38;2084074;92;25835;-78
2022/06/16 05:01:41;;;;;;;4.80;2.58;;;;;;;17.27;55.88;100386.69;2054029;94;25777;-79
2022/06/16 05:05:09;;;;;;;1.72;1.42;;;;;;;17.36;55.65;100382.70;2033270;92;25894;-79
2022/06/16 05:08:40;;;;;;;2.42;1.85;;;;;;;17.50;55.52;100382.64;2054765;94;26029;-79
2022/06/16 05:12:42;;;;;;;2.72;1.57;;;;;;;17.66;55.39;100388.73;2055408;94;26042;-79
2022/06/16 05:16:42;;;;;;;4.25;1.45;;;;;;;17.77;55.09;100382.97;2053264;93;25827;-79
2022/06/16 05:20:19;;;;;;;3.80;1.87;;;;;;;18.02;54.98;100382.39;2039294;96;25698;-80
2022/06/16 05:24:13;;;;;;;5.37;2.22;;;;;;;18.25;54.82;100382.20;2056152;94;25815;-79
2022/06/16 05:28:06;;;;;;;2.12;1.27;;;;;;;18.43;54.24;100381.61;2054560;94;25932;-79
2022/06/16 05:32:05;;;;;;;4.40;1.50;;;;;;;18.64;53.33;100377.03;2051049;94;25827;-79
2022/06/16 05:36:05;;;;;;;4.70;1.45;;;;;;;18.79;53.19;100369.88;2070173;90;25856;-80
2022/06/16 05:40:20;;;;;;;3.10;1.75;;;;;;;19.07;52.67;100373.98;2107336;93;25651;-79
2022/06/16 05:43:53;;;;;;;4.30;2.08;;;;;;;19.32;52.01;100381.16;2095746;91;25851;-79
2022/06/16 05:47:48;;;;;;;5.95;1.52;;;;;;;19.42;51.80;100371.35;2082975;93;25658;-78
2022/06/16 05:51:39;;;;;;;2.65;1.40;;;;;;;19.74;51.39;100378.91;2091839;93;25780;-79
2022/06/16 05:55:13;;;;;;;3.98;1.50;;;;;;;20.01;51.09;100376.30;2110541;91;25777;-78
2022/06/16 05:58:37;;;;;;;1.75;1.15;;;;;;;20.39;50.68;100374.80;2111585;91;25885;-79
2022/06/16 06:02:05;;;;;;;2.65;1.27;;;;;;;20.59;50.01;100375.82;2111078;93;25788;-79
2022/06/16 06:05:32;;;;;;;1.92;1.45;;;;;;;20.71;49.56;100377.36;2110837;92;25681;-79
2022/06/16 06:17:06;;;;;;;4.28;1.20;;;;;;;21.25;48.46;100367.92;2110205;93;26065;-79
2022/06/16 06:20:43;;;;;;;5.62;1.32;;;;;;;21.49;48.56;100369.22;2096285;90;25850;-80
2022/06/16 06:24:23;;;;;;;2.02;1.40;;;;;;;21.87;47.67;100370.17;2110786;91;25707;-79
2022/06/16 06:27:51;;;;;;;2.10;0.90;;;;;;;21.86;46.43;100378.56;2109720;93;25796;-80
2022/06/16 06:31:19;;;;;;;2.55;0.93;;;;;;;21.68;46.13;100372.36;2111220;93;25898;-80
2022/06/16 06:34:51;;;;;;;1.95;1.07;;;;;;;21.90;46.15;100378.94;2110551;92;34764;-80
2022/06/16 06:39:16;;;;;;;2.65;0.88;;;;;;;22.04;44.62;100376.38;2110612;92;25328;-80
2022/06/16 06:42:43;;;;;;;2.05;0.90;;;;;;;21.96;44.15;100367.28;2107866;92;25804;-80
2022/06/16 06:50:40;;;;;;;2.95;0.90;;;;;;;21.86;43.51;100361.31;2070446;93;26474;-79
2022/06/16 06:54:21;;;;;;;4.87;1.00;;;;;;;22.05;43.70;100358.23;2038247;94;25797;-80
2022/06/16 06:57:53;;;;;;;3.20;1.00;;;;;;;22.20;43.18;100355.23;2033976;95;25789;-79
2022/06/16 07:01:47;;;;;;;2.35;1.00;;;;;;;22.45;43.18;100348.86;2035512;95;25983;-77
2022/06/16 07:05:28;;;;;;;2.47;0.65;;;;;;;22.76;42.79;100345.39;2039968;95;25835;-78
2022/06/16 07:08:51;;;;;;;3.35;0.80;;;;;;;23.04;42.47;100345.06;1998359;96;26571;-79
2022/06/16 07:12:37;;;;;;;2.20;0.65;;;;;;;23.30;41.09;100336.33;1993690;96;25902;-78
2022/06/16 07:16:04;;;;;;;2.45;0.85;;;;;;;23.42;40.36;100339.10;1999295;96;25901;-78
2022/06/16 07:19:33;;;;;;;2.92;1.00;;;;;;;23.44;40.41;100342.57;1998050;96;25845;-80
2022/06/16 07:23:05;;;;;;;3.22;1.00;;;;;;;23.45;40.82;100338.11;1990177;97;26441;-77
2022/06/16 07:26:42;;;;;;;1.87;0.80;;;;;;;23.67;40.41;100341.87;1986645;97;26249;-78
2022/06/16 07:30:34;;;;;;;0.93;0.60;;;;;;;23.83;39.91;100341.41;1972310;97;25885;-78
2022/06/16 07:33:56;;;;;;;2.35;0.90;;;;;;;24.08;39.86;100337.52;1972581;97;26074;-79
2022/06/16 07:37:31;;;;;;;2.40;1.00;;;;;;;24.31;39.24;100340.75;1985832;96;25955;-78
2022/06/16 07:45:02;;;;;;;1.42;0.70;;;;;;;24.83;38.90;100333.62;1976188;97;25850;-78
2022/06/16 07:48:34;;;;;;;2.65;0.80;;;;;;;25.08;38.02;100327.81;1981980;97;32414;-77
2022/06/16 07:52:04;;;;;;;2.25;0.90;;;;;;;25.00;37.77;100323.67;2025746;95;25884;-78
2022/06/16 07:55:39;;;;;;;1.27;0.80;;;;;;;25.14;37.91;100321.39;2043632;96;26379;-78
2022/06/16 07:59:05;;;;;;;2.22;0.70;;;;;;;25.30;37.41;100323.89;2040475;96;26798;-78
2022/06/16 08:02:36;;;;;;;3.83;0.80;;;;;;;25.57;36.99;100327.28;2040217;94;25878;-79
2022/06/16 08:06:03;;;;;;;4.58;0.85;;;;;;;25.92;36.62;100321.06;2084958;91;25845;-79
2022/06/16 08:09:38;;;;;;;4.05;1.10;;;;;;;26.24;35.97;100327.72;2110700;91;25672;-79
2022/06/16 08:13:08;;;;;;;2.10;0.72;;;;;;;26.44;35.99;100326.02;2135488;90;26413;-80
2022/06/16 08:16:39;;;;;;;3.25;1.20;;;;;;;26.80;35.37;100329.79;2130168;91;25724;-78
2022/06/16 08:20:06;;;;;;;3.80;1.20;;;;;;;26.95;35.22;100325.55;2131279;90;25679;-79
2022/06/16 08:23:36;;;;;;;1.02;0.82;;;;;;;27.41;34.22;100327.97;2117318;92;25764;-80
2022/06/16 08:27:02;;;;;;;4.22;0.65;;;;;;;27.57;33.35;100329.42;2137189;90;27183;-80
2022/06/16 08:30:32;;;;;;;3.72;0.65;;;;;;;27.45;33.65;100324.20;2129177;90;25644;-79
2022/06/16 08:34:03;;;;;;;1.98;0.75;;;;;;;27.44;33.60;100325.11;2131245;90;25833;-78
2022/06/16 08:37:49;;;;;;;1.37;0.75;;;;;;;27.16;32.75;100339.78;2135101;90;25737;-78
2022/06/16 08:41:15;;;;;;;1.02;0.70;;;;;;;26.58;32.84;100328.52;2126390;90;25693;-79
2022/06/16 08:45:11;;;;;;;1.12;0.62;;;;;;;26.20;33.87;100329.27;2110781;90;25793;-81
2022/06/16 08:49:56;;;;;;;2.12;0.68;;;;;;;26.26;34.36;100332.55;2133231;89;25803;-80
2022/06/16 08:54:22;;;;;;;1.15;0.60;;;;;;;26.40;33.70;100333.77;2142549;91;25743;-79
2022/06/16 08:59:00;;;;;;;1.67;1.02;;;;;;;26.29;33.42;100335.09;2128658;90;25871;-81
2022/06/16 09:02:43;;;;;;;1.12;0.60;;;;;;;26.53;33.61;100327.00;2087301;93;26275;-81
2022/06/16 09:06:57;;;;;;;1.70;0.65;;;;;;;26.60;33.17;100314.63;2074052;92;26005;-80
2022/06/16 09:18:58;;;;;;;4.33;0.70;;;;;;;28.27;31.19;100309.04;1977140;98;25915;-80
2022/06/16 09:22:50;;;;;;;0.70;0.70;;;;;;;28.41;30.94;100304.73;1975759;98;26538;-80
2022/06/16 09:26:47;;;;;;;3.75;0.95;;;;;;;28.92;31.01;100308.77;1956953;99;26215;-81
2022/06/16 09:30:39;;;;;;;1.45;0.60;;;;;;;29.40;29.77;100304.41;1927573;100;25779;-81
2022/06/16 09:34:23;;;;;;;3.33;0.60;;;;;;;29.52;29.27;100299.66;1981736;97;25779;-81
2022/06/16 09:38:12;;;;;;;3.58;0.80;;;;;;;29.71;29.01;100300.88;2034384;96;25814;-80
2022/06/16 09:45:48;;;;;;;3.33;0.70;;;;;;;30.03;28.10;100304.37;1968742;98;25508;-81
2022/06/16 09:49:44;;;;;;;2.08;0.85;;;;;;;30.13;27.75;100300.66;1967990;98;25648;-81
2022/06/16 09:57:40;;;;;;;2.40;0.60;;;;;;;29.24;27.56;100308.89;1933323;100;25867;-81
2022/06/16 10:01:25;;;;;;;2.08;0.78;;;;;;;29.00;28.30;100309.75;1916338;102;25412;-88
2022/06/16 10:04:57;;;;;;;1.95;0.60;;;;;;;29.03;28.34;100299.72;1875086;103;25829;-81
2022/06/16 10:09:19;;;;;;;;;;;;;;;;;;;;;
2022/06/16 10:13:29;;;;;;;;;;;;;;;;;;;;;
2022/06/16 10:17:20;;;;;;;2.17;1.05;;;;;;;30.07;28.04;100296.53;1908735;101;25766;-82
2022/06/16 10:20:43;;;;;;;2.25;0.70;;;;;;;30.02;27.40;100295.92;1926547;98;25787;-78
2022/06/16 10:24:09;;;;;;;5.35;0.70;;;;;;;29.77;27.47;100292.95;1930090;100;26006;-82
2022/06/16 10:27:52;;;;;;;1.60;0.80;;;;;;;30.00;27.70;100293.79;1948068;99;25761;-76
2022/06/16 10:31:43;;;;;;;0.70;0.60;;;;;;;30.43;28.06;100288.59;1935468;101;26542;-79
2022/06/16 10:35:22;;;;;;;1.32;0.75;;;;;;;30.90;26.90;100293.39;1996677;97;25893;-77
2022/06/16 10:39:33;;;;;;;1.25;0.70;;;;;;;30.85;26.86;100292.80;1982074;99;25907;-77
2022/06/16 10:43:34;;;;;;;4.65;0.70;;;;;;;31.00;27.12;100291.37;2068931;93;25971;-76
2022/06/16 10:47:06;;;;;;;4.40;0.85;;;;;;;31.16;26.60;100285.02;2069030;93;25941;-78
2022/06/16 10:50:51;;;;;;;3.25;0.85;;;;;;;31.41;27.31;100285.20;2069445;93;25801;-77
2022/06/16 10:59:33;;;;;;;1.42;0.75;;;;;;;31.49;27.44;100290.97;2133152;92;25781;-77
2022/06/16 11:03:21;;;;;;;1.62;0.65;;;;;;;31.01;25.21;100282.31;2100915;91;25900;-80
2022/06/16 11:11:11;;;;;;;;;;;;;;;;;;;;;
2022/06/16 11:15:19;;;;;;;3.25;0.68;;;;;;;30.95;25.17;100267.03;2033665;95;25948;-77
2022/06/16 11:18:41;;;;;;;1.35;0.68;;;;;;;31.01;25.84;100269.34;2047825;93;25834;-80
2022/06/16 11:22:41;;;;;;;1.87;0.60;;;;;;;31.39;25.59;100271.47;2047315;90;25734;-78
2022/06/16 11:26:37;;;;;;;1.67;0.80;;;;;;;31.60;25.42;100266.01;2047082;94;25850;-77
2022/06/16 11:30:29;;;;;;;1.35;0.50;;;;;;;31.66;25.12;100270.14;2046625;95;25808;-80
2022/06/16 11:34:33;;;;;;;0.80;0.70;;;;;;;31.82;25.49;100269.48;2046642;95;25763;-80
2022/06/16 11:41:59;;;;;;;;;;;;;;;32.36;25.11;100261.33;1984528;98;25788;-81
2022/06/16 11:46:06;;;;;;;1.67;0.60;;;;;;;32.53;24.93;100266.08;1982091;98;31467;-81
2022/06/16 11:49:52;;;;;;;2.05;0.80;;;;;;;32.66;24.72;100252.95;1983069;98;25832;-80
2022/06/16 11:53:57;;;;;;;1.67;0.68;;;;;;;32.69;24.75;100251.39;1982213;99;25766;-82
2022/06/16 11:58:15;;;;;;;3.15;0.50;;;;;;;32.84;24.64;100240.00;1959918;98;26424;-81
2022/06/16 12:02:35;;;;;;;2.05;0.93;;;;;;;33.10;24.59;100248.94;1981494;99;25819;-82
2022/06/16 12:06:59;;;;;;;;;;;;;;;;;;;;;
2022/06/16 12:10:35;;;;;;;1.52;0.70;;;;;;;32.98;24.07;100239.53;2024476;96;25764;-81
2022/06/16 12:14:17;;;;;;;3.50;0.70;;;;;;;33.10;24.03;100236.78;1993114;97;25761;-81
2022/06/16 12:18:34;;;;;;;1.85;0.70;;;;;;;33.36;23.92;100240.78;2004331;96;25955;-81
2022/06/16 12:22:54;;;;;;;4.83;0.90;;;;;;;33.36;23.79;100238.07;2072915;92;25869;-81
2022/06/16 12:30:37;;;;;;;4.53;0.78;;;;;;;33.28;23.28;100225.14;1907972;100;25947;-81
2022/06/16 12:34:43;;;;;;;6.22;0.60;;;;;;;33.33;23.29;100226.14;1865061;104;26005;-81
2022/06/16 12:38:47;;;;;;;1.62;0.80;;;;;;;33.55;23.33;100220.91;1823166;106;25927;-81
2022/06/16 12:42:33;;;;;;;2.50;0.80;;;;;;;33.72;23.12;100207.95;1824186;104;27356;-81
2022/06/16 12:46:08;;;;;;;3.08;1.30;;;;;;;34.01;22.50;100194.92;1855834;102;25907;-81
2022/06/16 12:50:25;;;;;;;2.98;0.80;;;;;;;34.02;22.30;100192.58;1878661;102;26503;-81
2022/06/16 12:54:40;;;;;;;1.47;0.70;;;;;;;34.02;22.44;100185.81;1873596;103;26248;-81
2022/06/16 13:03:07;;;;;;;2.90;1.00;;;;;;;33.52;21.94;100181.08;1853167;104;25879;-83
2022/06/16 13:07:10;;;;;;;1.55;0.70;;;;;;;33.44;22.87;100182.09;1907699;100;26089;-82
2022/06/16 13:11:35;;;;;;;;;;;;;;;;;;;;;
2022/06/16 13:15:31;;;;;;;1.75;0.70;;;;;;;34.14;22.26;100164.58;1844750;105;26597;-84
2022/06/16 13:19:30;;;;;;;4.15;0.72;;;;;;;34.13;22.02;100161.52;1841939;105;26335;-84
2022/06/16 13:24:00;;;;;;;2.08;0.70;;;;;;;33.80;22.14;100157.70;1856514;104;26025;-83
2022/06/16 13:27:38;;;;;;;2.27;0.80;;;;;;;33.24;22.21;100159.27;1781255;109;25974;-83
2022/06/16 13:31:30;;;;;;;1.75;0.90;;;;;;;32.94;22.43;100149.75;1748674;111;26028;-83
2022/06/16 13:34:57;;;;;;;2.35;0.70;;;;;;;33.14;22.64;100142.88;1738417;112;25881;-83
2022/06/16 13:38:23;;;;;;;;;;;;;;;33.18;22.25;100127.30;1753739;110;25920;-82
2022/06/16 13:42:24;;;;;;;3.17;0.72;;;;;;;32.97;22.80;100129.77;1732437;112;25982;-83
2022/06/16 13:46:18;;;;;;;1.25;0.80;;;;;;;33.13;22.87;100124.95;1742415;110;25815;-82
2022/06/16 13:49:56;;;;;;;4.15;0.90;;;;;;;33.31;22.92;100119.53;1770330;109;26223;-84
2022/06/16 13:54:03;;;;;;;4.65;0.88;;;;;;;33.17;22.70;100112.08;1783822;109;25794;-82
2022/06/16 13:57:43;;;;;;;2.62;0.70;;;;;;;33.08;22.85;100098.30;1750284;111;26021;-84
2022/06/16 14:01:50;;;;;;;1.22;0.70;;;;;;;32.93;22.77;100098.91;1783734;109;26046;-84
2022/06/16 14:05:10;;;;;;;2.50;0.85;;;;;;;32.86;23.00;100086.84;1767734;105;25876;-83
2022/06/16 14:09:16;;;;;;;4.12;0.72;;;;;;;32.91;23.28;100087.38;1876924;101;26624;-84
2022/06/16 14:13:40;;;;;;;0.60;0.60;;;;;;;32.96;23.33;100085.70;1906288;99;25963;-82
2022/06/16 14:17:37;;;;;;;3.42;0.70;;;;;;;32.96;23.30;100079.44;1862034;105;26045;-85
2022/06/16 14:21:22;;;;;;;3.72;0.98;;;;;;;32.96;23.38;100076.73;1875714;104;25923;-82
2022/06/16 14:25:23;;;;;;;2.45;0.80;;;;;;;33.01;23.39;100070.48;1863322;104;25768;-83
2022/06/16 14:29:00;;;;;;;5.37;1.32;;;;;;;32.91;23.23;100068.96;1877189;101;26063;-83
2022/06/16 14:32:40;;;;;;;;;;;;;;;;;;;;;
2022/06/16 14:36:34;;;;;;;0.90;0.68;;;;;;;32.39;23.65;100065.50;1981536;98;26006;-83
2022/06/16 14:40:22;;;;;;;2.00;0.62;;;;;;;32.24;23.70;100066.63;1909644;102;25883;-83
2022/06/16 14:44:48;;;;;;;4.03;0.80;;;;;;;31.92;24.11;100071.11;1866317;103;25873;-81
2022/06/16 14:48:55;;;;;;;2.47;0.70;;;;;;;31.71;24.34;100064.00;1854840;105;25912;-82
2022/06/16 14:52:44;;;;;;;1.22;0.90;;;;;;;31.32;24.59;100058.20;1857841;105;25845;-82
2022/06/16 15:00:58;;;;;;;2.12;0.90;;;;;;;30.83;25.20;100051.16;1881914;102;25964;-83
2022/06/16 15:04:35;;;;;;;2.83;0.90;;;;;;;30.63;25.21;100043.86;1883388;102;26591;-84
2022/06/16 15:08:12;;;;;;;5.40;0.80;;;;;;;30.21;25.69;100035.41;1863270;103;25402;-83
2022/06/16 15:11:49;;;;;;;3.12;1.32;;;;;;;30.19;25.95;100034.63;1899021;102;26307;-83
2022/06/16 15:15:25;;;;;;;2.00;0.82;;;;;;;30.20;26.07;100043.92;1889278;104;26420;-83
2022/06/16 15:19:20;;;;;;;1.75;0.93;;;;;;;30.19;26.24;100047.59;1937294;99;26186;-82
2022/06/16 15:23:07;;;;;;;1.45;1.00;;;;;;;29.97;26.25;100039.98;1983378;97;25832;-82
2022/06/16 15:26:35;;;;;;;2.70;0.85;;;;;;;29.82;26.17;100043.61;1952767;99;26550;-82
2022/06/16 15:30:03;;;;;;;1.60;0.98;;;;;;;29.48;26.44;100036.72;1970426;97;25985;-83
2022/06/16 15:37:46;;;;;;;;;;;;;;;28.95;26.84;100036.22;1936895;99;26661;-84
2022/06/16 15:41:31;;;;;;;0.93;0.62;;;;;;;28.62;27.38;100044.37;1933933;99;26296;-83
2022/06/16 15:45:19;;;;;;;1.92;0.95;;;;;;;28.42;27.40;100041.02;1946335;99;25894;-83
2022/06/16 15:48:45;;;;;;;5.00;0.93;;;;;;;28.14;27.72;100043.45;1944833;99;26103;-85
2022/06/16 15:52:18;;;;;;;3.75;0.82;;;;;;;27.93;27.96;100046.82;1943251;99;25847;-83
2022/06/16 15:55:51;;;;;;;5.42;1.30;;;;;;;27.83;28.34;100048.26;1955971;98;25748;-83
2022/06/16 15:59:32;;;;;;;0.70;0.60;;;;;;;27.73;28.42;100044.69;1981470;97;25892;-84
2022/06/16 16:03:17;;;;;;;5.33;0.93;;;;;;;27.67;28.43;100049.02;2005403;95;25957;-83
2022/06/16 16:07:05;;;;;;;1.65;0.90;;;;;;;27.45;28.50;100047.09;2015664;94;25851;-82
2022/06/16 16:10:29;;;;;;;3.52;1.10;;;;;;;27.20;28.78;100050.13;2022741;94;25943;-82
2022/06/16 16:14:36;;;;;;;;;;;;;;;;;;;;;
2022/06/16 16:18:07;;;;;;;3.40;1.17;;;;;;;27.04;29.07;100041.52;2006835;96;26342;-84
2022/06/16 16:22:02;;;;;;;2.05;0.93;;;;;;;27.04;29.13;100040.66;1990798;95;25908;-84
2022/06/16 16:30:25;;;;;;;3.40;1.30;;;;;;;26.84;29.29;100031.80;1895484;101;25967;-85
2022/06/16 16:34:09;;;;;;;6.12;1.15;;;;;;;26.87;29.27;100034.81;1926299;99;25504;-85
2022/06/16 16:37:54;;;;;;;;;;;;;;;;;;;;;
2022/06/16 16:45:49;;;;;;;2.85;1.25;;;;;;;27.06;29.19;100030.25;1872994;102;25930;-81
2022/06/16 16:49:24;;;;;;;3.45;0.80;;;;;;;26.79;29.19;100036.50;1849371;104;25874;-80
2022/06/16 16:53:43;;;;;;;12.30;1.10;;;;;;;26.61;29.25;100034.26;1880959;103;26232;-81
2022/06/16 16:57:27;;;;;;;;;;;;;;;26.36;29.42;100034.55;1904826;101;26112;-80
2022/06/16 17:01:06;;;;;;;3.08;0.80;;;;;;;26.32;29.65;100028.92;1892098;102;25823;-81
2022/06/16 17:05:49;;;;;;;;;;;;;;;;;;;;;
2022/06/16 17:09:36;;;;;;;;;;;;;;;;;;;;;
2022/06/16 17:19:56;;;;;;;;;;;;;;;;;;;;;
2022/06/16 17:23:35;;;;;;;1.57;0.68;;;;;;;25.60;30.44;100017.97;1801117;105;25986;-78
2022/06/16 17:27:11;;;;;;;;;;;;;;;;;;;;;
2022/06/16 17:37:52;;;;;;;7.62;1.57;;;;;;;25.39;30.65;100032.66;1815196;107;25871;-79
2022/06/16 17:41:31;;;;;;;1.82;0.62;;;;;;;25.36;30.62;100028.78;1823218;107;25842;-80
2022/06/16 17:45:05;;;;;;;2.77;1.10;;;;;;;25.38;30.60;100035.38;1809091;106;25848;-78
2022/06/16 17:48:45;;;;;;;1.62;0.90;;;;;;;25.31;30.67;100032.56;1750593;111;26038;-80
2022/06/16 18:02:33;;;;;;;;;;;;;;;;;;;;;
2022/06/16 18:05:50;;;;;;;4.45;1.45;;;;;;;25.20;31.05;100033.89;2446686;80;25718;-83
2022/06/16 18:09:34;;;;;;;1.30;0.93;;;;;;;25.39;31.20;100037.13;2411314;80;25672;-89
2022/06/16 18:13:21;;;;;;;;;;;;;;;;;;;;;
2022/06/16 18:16:57;;;;;;;1.15;0.82;;;;;;;25.66;31.55;100055.08;2278960;84;25975;-79
2022/06/16 18:20:43;;;;;;;1.87;1.02;;;;;;;25.77;31.56;100054.13;2278611;85;25951;-80
2022/06/16 18:24:31;;;;;;;9.68;2.70;;;;;;;25.81;31.57;100062.90;2279056;86;31547;-79
2022/06/16 18:28:30;;;;;;;3.80;1.15;;;;;;;25.83;31.42;100068.58;2274359;86;25763;-78
2022/06/16 18:32:26;;;;;;;;;;;;;;;;;;;;;
2022/06/16 18:39:31;;;;;;;6.08;0.90;;;;;;;25.37;34.18;100125.23;2142506;89;25847;-78
2022/06/16 18:43:09;;;;;;;3.70;1.00;;;;;;;25.32;34.58;100139.25;2159667;89;26078;-84
2022/06/16 18:51:16;;;;;;;;;;;;;;;;;;;;;
2022/06/16 18:58:55;;;;;;;7.42;1.27;;;;;;;24.86;37.95;100171.72;2057629;94;26155;-83
2022/06/16 19:02:46;;;;;;;7.53;1.30;;;;;;;24.73;38.27;100181.98;2000933;95;25766;-85
2022/06/16 19:06:40;;;;;;;;;;;;;;;;;;;;;
2022/06/16 19:10:18;;;;;;;1.50;0.80;;;;;;;24.54;39.72;100190.28;1884408;102;25886;-80
2022/06/16 19:14:02;;;;;;;4.78;1.40;;;;;;;24.44;40.19;100188.89;1857816;102;25898;-81
2022/06/16 19:22:44;;;;;;;4.22;1.52;;;;;;;24.32;42.20;100173.30;1737984;113;26036;-78
2022/06/16 19:32:01;;;;;;;3.90;1.07;;;;;;;23.32;43.90;100124.36;1696285;113;25842;-80
2022/06/16 19:35:30;;;;;;;7.12;1.20;;;;;;;22.51;44.36;100180.00;1731106;113;25998;-82
2022/06/16 19:39:00;;;;;;;2.55;1.30;;;;;;;22.63;45.74;100191.59;1737827;112;26512;-81
2022/06/16 19:42:28;;;;;;;2.52;1.50;;;;;;;22.75;46.43;100190.84;1735775;112;26705;-85
2022/06/16 19:53:51;;;;;;;;;;;;;;;;;;;;;
2022/06/16 19:57:22;;;;;;;5.08;1.50;;;;;;;23.29;46.36;100188.77;1967382;93;26309;-77
2022/06/16 20:00:50;;;;;;;1.87;1.02;;;;;;;23.36;46.45;100187.64;1987742;98;25753;-78
2022/06/16 20:04:29;;;;;;;4.03;1.20;;;;;;;23.40;46.53;100200.39;2002756;97;25814;-83
2022/06/16 20:08:23;;;;;;;2.70;1.17;;;;;;;23.48;46.69;100201.86;2033346;97;25999;-81